.
WxDataArchive / Data Records for 2007-09-24
2007-09-23 September 2007 2007-09-25

Data Records for Monday, 24 September 2007

Time	Temp	Chill	HIndex	Humid	Dewpt	 Wind 	HiWind	WindDir	Rain 	Barom 
-----	----	-----	------	-----	-----	------	------	-------	-----	----- 
00:00	59.9	59.9	59.9	80	53.7	0	1	90	0.00	30.127 
00:05	59.8	59.8	59.8	81	54.0	0	0	---	0.00	30.122 
00:10	59.6	59.6	59.6	81	53.8	0	1	90	0.00	30.121 
00:15	59.5	59.5	59.5	81	53.7	0	1	90	0.00	30.120 
00:20	59.3	59.3	59.3	81	53.5	0	1	90	0.00	30.122 
00:25	59.3	59.3	59.3	81	53.5	0	1	90	0.00	30.122 
00:30	59.3	59.3	59.3	81	53.5	0	1	90	0.00	30.124 
00:35	59.3	59.3	59.3	81	53.5	0	1	90	0.00	30.126 
00:40	59.3	59.3	59.3	81	53.5	0	2	90	0.00	30.126 
00:45	59.3	59.3	59.3	81	53.5	0	1	90	0.00	30.125 
00:50	59.3	59.3	59.3	81	53.5	0	1	90	0.00	30.124 
00:55	59.3	59.3	59.3	81	53.5	0	2	90	0.00	30.124 
01:00	59.3	59.3	59.3	81	53.5	0	2	90	0.00	30.124 
01:05	59.3	59.3	59.3	81	53.5	0	2	90	0.00	30.121 
01:10	59.2	59.2	59.2	81	53.4	0	1	90	0.00	30.122 
01:15	59.2	59.2	59.2	81	53.4	0	1	90	0.00	30.122 
01:20	59.0	59.0	59.0	82	53.5	0	1	90	0.00	30.124 
01:25	58.9	58.9	58.9	82	53.4	0	0	---	0.00	30.125 
01:30	58.7	58.7	58.7	82	53.2	0	0	---	0.00	30.124 
01:35	58.6	58.6	58.6	83	53.4	0	1	90	0.00	30.122 
01:40	58.4	58.4	58.4	83	53.3	0	0	---	0.00	30.121 
01:45	58.3	58.3	58.3	83	53.2	0	0	---	0.00	30.121 
01:50	58.1	58.1	58.1	84	53.3	0	0	---	0.00	30.121 
01:55	57.8	57.8	57.8	84	53.0	0	0	---	0.00	30.119 
02:00	57.6	57.6	57.6	85	53.1	0	0	---	0.00	30.117 
02:05	57.5	57.5	57.5	85	53.0	0	1	90	0.00	30.110 
02:10	57.5	57.5	57.5	86	53.3	0	0	---	0.00	30.108 
02:15	57.5	57.5	57.5	86	53.3	0	1	90	0.00	30.106 
02:20	57.6	57.6	57.6	86	53.4	0	0	---	0.00	30.106 
02:25	57.6	57.6	57.6	86	53.4	0	0	---	0.00	30.105 
02:30	57.6	57.6	57.6	86	53.4	0	0	---	0.00	30.104 
02:35	57.6	57.6	57.6	86	53.4	0	1	90	0.00	30.104 
02:40	57.6	57.6	57.6	85	53.1	0	0	---	0.00	30.103 
02:45	57.6	57.6	57.6	85	53.1	0	0	---	0.00	30.102 
02:50	57.6	57.6	57.6	85	53.1	0	0	---	0.00	30.101 
02:55	57.5	57.5	57.5	86	53.3	0	0	---	0.00	30.099 
03:00	57.3	57.3	57.3	86	53.1	0	1	90	0.00	30.096 
03:05	57.2	57.2	57.2	86	53.0	0	0	---	0.00	30.095 
03:10	57.2	57.2	57.2	87	53.4	0	1	90	0.00	30.096 
03:15	57.2	57.2	57.2	87	53.4	0	0	---	0.00	30.095 
03:20	57.0	57.0	57.0	87	53.2	0	0	---	0.00	30.094 
03:25	57.0	57.0	57.0	87	53.2	0	1	90	0.00	30.094 
03:30	56.9	56.9	56.9	87	53.1	0	0	---	0.00	30.094 
03:35	56.9	56.9	56.9	88	53.4	0	1	90	0.00	30.095 
03:40	56.9	56.9	56.9	88	53.4	0	0	---	0.00	30.092 
03:45	56.9	56.9	56.9	88	53.4	0	1	90	0.00	30.090 
03:50	56.7	56.7	56.7	88	53.2	0	1	90	0.00	30.090 
03:55	56.9	56.9	56.9	88	53.4	0	0	---	0.00	30.089 
04:00	56.7	56.7	56.7	87	52.9	0	0	---	0.00	30.089 
04:05	56.7	56.7	56.7	87	52.9	0	0	---	0.00	30.090 
04:10	56.6	56.6	56.6	88	53.1	0	0	---	0.00	30.090 
04:15	56.5	56.5	56.5	88	53.0	0	0	---	0.00	30.090 
04:20	56.5	56.5	56.5	88	53.0	0	1	90	0.00	30.090 
04:25	56.5	56.5	56.5	88	53.0	0	0	---	0.00	30.091 
04:30	56.5	56.5	56.5	88	53.0	0	0	---	0.00	30.091 
04:35	56.3	56.3	56.3	88	52.8	0	1	90	0.00	30.093 
04:40	56.3	56.3	56.3	88	52.8	0	0	---	0.00	30.093 
04:45	56.5	56.5	56.5	87	52.7	0	1	90	0.00	30.091 
04:50	56.6	56.6	56.6	87	52.8	0	1	90	0.00	30.093 
04:55	56.6	56.6	56.6	87	52.8	0	0	---	0.00	30.091 
05:00	56.6	56.6	56.6	86	52.5	0	0	---	0.00	30.091 
05:05	56.6	56.6	56.6	86	52.5	0	1	90	0.00	30.094 
05:10	56.6	56.6	56.6	86	52.5	0	0	---	0.00	30.094 
05:15	56.6	56.6	56.6	86	52.5	0	0	---	0.00	30.094 
05:20	56.6	56.6	56.6	85	52.1	0	1	90	0.00	30.096 
05:25	56.6	56.6	56.6	85	52.1	0	0	---	0.00	30.096 
05:30	56.5	56.5	56.5	85	52.0	0	0	---	0.00	30.096 
05:35	56.5	56.5	56.5	85	52.0	0	1	90	0.00	30.098 
05:40	56.5	56.5	56.5	85	52.0	0	1	90	0.00	30.100 
05:45	56.6	56.6	56.6	84	51.8	0	1	90	0.00	30.099 
05:50	56.6	56.6	56.6	84	51.8	0	0	---	0.00	30.102 
05:55	56.5	56.5	56.5	84	51.7	0	0	---	0.00	30.105 
06:00	56.5	56.5	56.5	85	52.0	0	0	---	0.00	30.106 
06:05	56.5	56.5	56.5	85	52.0	0	1	90	0.00	30.114 
06:10	56.6	56.6	56.6	84	51.8	0	1	90	0.00	30.114 
06:15	56.7	56.7	56.7	84	51.9	0	0	---	0.00	30.115 
06:20	56.9	56.9	56.9	83	51.8	0	0	---	0.00	30.116 
06:25	57.0	57.0	57.0	83	51.9	0	0	---	0.00	30.116 
06:30	57.0	57.0	57.0	83	51.9	0	1	90	0.00	30.117 
06:35	57.2	57.2	57.2	82	51.8	0	0	---	0.00	30.117 
06:40	57.2	57.2	57.2	81	51.4	0	1	90	0.00	30.117 
06:45	57.5	57.5	57.5	81	51.7	0	1	90	0.00	30.115 
06:50	57.6	57.6	57.6	80	51.5	0	1	90	0.00	30.115 
06:55	57.8	57.8	57.8	80	51.7	0	1	90	0.00	30.115 
07:00	58.0	58.0	58.0	79	51.5	0	1	90	0.00	30.114 
07:05	58.1	58.1	58.1	79	51.6	0	1	90	0.00	30.120 
07:10	58.6	58.6	58.6	78	51.8	0	1	90	0.00	30.119 
07:15	59.0	59.0	59.0	77	51.8	0	1	90	0.00	30.117 
07:20	59.3	59.3	59.3	76	51.7	0	1	90	0.00	30.117 
07:25	59.6	59.6	59.6	74	51.3	0	1	90	0.00	30.117 
07:30	59.8	59.8	59.8	75	51.9	0	1	90	0.00	30.117 
07:35	59.9	59.9	59.9	75	52.0	0	1	90	0.00	30.117 
07:40	59.9	59.9	59.9	75	52.0	0	2	90	0.00	30.117 
07:45	60.2	60.2	60.2	74	51.9	0	1	90	0.00	30.118 
07:50	60.5	60.5	60.5	74	52.2	0	1	90	0.00	30.115 
07:55	61.0	61.0	61.0	73	52.3	0	1	90	0.00	30.116 
08:00	61.5	61.5	61.5	71	52.0	1	2	90	0.00	30.116 
08:05	62.0	62.0	62.0	71	52.5	0	2	90	0.00	30.116 
08:10	62.4	62.4	62.4	70	52.5	0	1	90	0.00	30.116 
08:15	62.9	62.9	62.9	69	52.6	0	3	90	0.00	30.116 
08:20	63.2	63.2	63.2	69	52.9	0	2	90	0.00	30.117 
08:25	63.7	63.7	63.7	67	52.5	0	1	90	0.00	30.117 
08:30	64.2	64.2	64.2	66	52.6	0	1	90	0.00	30.117 
08:35	64.7	64.7	64.7	67	53.5	0	1	90	0.00	30.116 
08:40	65.3	65.3	65.3	64	52.8	1	2	90	0.00	30.116 
08:45	66.0	66.0	66.0	64	53.5	0	2	90	0.00	30.114 
08:50	66.8	66.8	66.8	62	53.4	0	2	90	0.00	30.116 
08:55	67.4	67.4	67.4	63	54.4	0	1	90	0.00	30.118 
09:00	68.3	68.3	68.3	62	54.8	0	2	90	0.00	30.115 
09:05	69.1	69.1	69.1	60	54.6	0	2	90	0.00	30.113 
09:10	69.9	69.9	69.9	59	54.9	0	1	90	0.00	30.112 
09:15	70.8	70.8	70.8	58	55.3	0	1	90	0.00	30.110 
09:20	71.8	71.8	71.8	56	55.2	0	2	90	0.00	30.110 
09:25	72.8	72.8	72.8	55	55.7	1	2	90	0.00	30.107 
09:30	73.3	73.3	73.3	56	56.6	0	1	90	0.00	30.106 
09:35	74.0	74.0	74.0	54	56.3	0	2	90	0.00	30.106 
09:40	74.6	74.6	74.6	56	57.8	0	2	90	0.00	30.105 
09:45	74.9	74.9	74.9	54	57.1	0	2	90	0.00	30.104 
09:50	75.6	75.6	77.9	54	57.8	1	2	0	0.00	30.102 
09:55	76.3	76.3	78.3	56	59.4	1	3	68	0.00	30.101 
10:00	77.0	77.0	78.7	53	58.5	0	2	338	0.00	30.099 
10:05	77.9	77.9	79.3	52	58.8	0	2	338	0.00	30.100 
10:10	78.8	78.8	79.8	50	58.6	1	2	45	0.00	30.099 
10:15	79.6	79.6	80.5	50	59.3	1	2	45	0.00	30.095 
10:20	80.3	80.3	81.2	51	60.5	1	3	45	0.00	30.091 
10:25	80.5	80.5	81.3	50	60.1	1	3	270	0.00	30.090 
10:30	81.2	81.2	81.7	48	59.6	0	2	270	0.00	30.087 
10:35	81.6	81.6	82.1	48	60.0	0	3	248	0.00	30.087 
10:40	82.0	82.0	82.3	47	59.8	0	1	248	0.00	30.085 
10:45	82.2	82.2	82.8	49	61.1	0	2	248	0.00	30.083 
10:50	83.0	83.0	83.5	48	61.3	1	4	248	0.00	30.082 
10:55	83.6	83.6	83.9	46	60.6	1	3	292	0.00	30.079 
11:00	83.6	83.6	83.9	46	60.6	2	4	248	0.00	30.078 
11:05	83.6	83.6	84.6	50	63.0	1	3	248	0.00	30.077 
11:10	84.0	84.0	84.9	49	62.8	1	3	248	0.00	30.072 
11:15	84.7	84.7	85.4	47	62.2	1	3	292	0.00	30.069 
11:20	85.5	85.5	86.6	48	63.5	1	2	90	0.00	30.068 
11:25	86.3	86.3	88.0	49	64.9	0	2	90	0.00	30.065 
11:30	86.7	86.7	87.5	45	62.8	1	2	90	0.00	30.061 
11:35	87.4	87.4	88.8	46	64.0	1	4	90	0.00	30.057 
11:40	87.6	87.6	88.5	44	63.0	1	3	248	0.00	30.053 
11:45	88.0	88.0	89.0	44	63.3	1	3	112	0.00	30.055 
11:50	88.0	88.0	88.5	42	62.0	1	3	135	0.00	30.056 
11:55	88.4	88.4	89.3	43	63.0	1	4	68	0.00	30.053 
12:00	89.0	89.0	90.2	43	63.6	1	2	68	0.00	30.053 
12:05	89.3	89.3	90.0	41	62.5	2	6	45	0.00	30.052 
12:10	89.5	89.5	90.6	42	63.3	1	3	270	0.00	30.048 
12:15	89.9	89.9	90.9	41	63.0	1	4	248	0.00	30.049 
12:20	89.9	89.9	90.2	39	61.6	3	9	90	0.00	30.043 
12:25	89.9	89.9	91.6	43	64.4	1	4	112	0.00	30.042 
12:30	90.3	90.3	90.8	39	61.9	1	3	270	0.00	30.036 
12:35	90.3	90.3	90.8	39	61.9	2	7	270	0.00	30.035 
12:40	90.3	90.3	90.8	39	61.9	2	5	248	0.00	30.033 
12:45	90.3	90.3	90.5	38	61.2	3	7	248	0.00	30.032 
12:50	90.5	90.5	90.7	38	61.4	2	4	270	0.00	30.031 
12:55	90.5	90.5	91.1	39	62.1	2	5	270	0.00	30.026 
13:00	91.0	91.0	91.8	39	62.6	1	4	248	0.00	30.020 
13:05	91.4	91.4	92.4	39	62.9	1	5	248	0.00	30.019 
13:10	91.2	91.2	91.8	38	62.0	1	4	270	0.00	30.018 
13:15	91.4	91.4	92.1	38	62.2	1	4	270	0.00	30.016 
13:20	91.4	91.4	92.4	39	62.9	1	3	90	0.00	30.014 
13:25	91.6	91.6	93.9	42	65.2	1	3	112	0.00	30.012 
13:30	92.1	92.1	93.9	40	64.3	1	4	248	0.00	30.009 
13:35	92.1	92.1	92.4	36	61.3	2	6	68	0.00	30.007 
13:40	92.1	92.1	92.0	35	60.5	1	4	135	0.00	30.004 
13:45	91.6	91.6	91.7	36	60.8	2	6	270	0.00	30.003 
13:50	91.2	91.2	91.4	37	61.2	1	4	315	0.00	30.004 
13:55	91.0	91.0	91.8	39	62.6	1	4	270	0.00	30.002 
14:00	91.0	91.0	91.5	38	61.8	2	6	112	0.00	30.001 
14:05	90.7	90.7	91.0	38	61.6	1	5	112	0.00	30.000 
14:10	91.0	91.0	91.1	37	61.1	1	3	90	0.00	29.999 
14:15	91.2	91.2	91.8	38	62.0	1	4	292	0.00	29.997 
14:20	91.2	91.2	92.1	39	62.7	0	3	90	0.00	29.993 
14:25	91.4	91.4	91.7	37	61.4	1	4	270	0.00	29.993 
14:30	91.2	91.2	92.5	40	63.5	1	4	270	0.00	29.989 
14:35	91.0	91.0	91.5	38	61.8	2	4	270	0.00	29.989 
14:40	90.5	90.5	91.1	39	62.1	1	5	90	0.00	29.989 
14:45	91.0	91.0	91.5	38	61.8	0	3	90	0.00	29.986 
14:50	91.4	91.4	92.1	38	62.2	1	3	90	0.00	29.985 
14:55	91.8	91.8	92.7	38	62.5	0	3	270	0.00	29.981 
15:00	92.5	92.5	93.0	36	61.6	1	3	90	0.00	29.976 
15:05	92.5	92.5	92.6	35	60.8	2	9	270	0.00	29.972 
15:10	92.5	92.5	93.0	36	61.6	1	5	248	0.00	29.970 
15:15	92.5	92.5	92.3	34	60.0	2	6	68	0.00	29.970 
15:20	92.3	92.3	92.7	36	61.4	1	5	22	0.00	29.970 
15:25	92.1	92.1	93.5	39	63.5	1	4	45	0.00	29.970 
15:30	91.6	91.6	92.0	37	61.6	2	5	90	0.00	29.969 
15:35	91.4	91.4	92.1	38	62.2	1	4	270	0.00	29.969 
15:40	91.4	91.4	92.1	38	62.2	1	4	45	0.00	29.967 
15:45	91.2	91.2	91.4	37	61.2	2	7	270	0.00	29.964 
15:50	90.7	90.7	90.7	37	60.8	1	3	248	0.00	29.964 
15:55	90.7	90.7	91.4	39	62.3	0	3	225	0.00	29.962 
16:00	90.5	90.5	90.7	38	61.4	1	4	45	0.00	29.959 
16:05	90.5	90.5	90.7	38	61.4	1	4	90	0.00	29.958 
16:10	90.3	90.3	90.5	38	61.2	1	6	45	0.00	29.958 
16:15	90.3	90.3	90.8	39	61.9	1	5	90	0.00	29.957 
16:20	90.3	90.3	90.5	38	61.2	1	5	112	0.00	29.956 
16:25	90.3	90.3	90.1	37	60.4	1	4	270	0.00	29.956 
16:30	90.3	90.3	90.8	39	61.9	1	4	248	0.00	29.957 
16:35	90.3	90.3	90.5	38	61.2	1	4	248	0.00	29.956 
16:40	90.1	90.1	90.5	39	61.8	1	3	248	0.00	29.957 
16:45	89.9	89.9	90.2	39	61.6	1	5	248	0.00	29.957 
16:50	89.7	89.7	89.9	39	61.4	1	3	248	0.00	29.957 
16:55	89.7	89.7	89.9	39	61.4	1	3	270	0.00	29.956 
17:00	89.3	89.3	89.4	39	61.0	1	2	270	0.00	29.956 
17:05	89.3	89.3	89.4	39	61.0	1	5	248	0.00	29.956 
17:10	89.0	89.0	88.7	38	60.1	1	4	270	0.00	29.955 
17:15	88.8	88.8	88.7	39	60.6	1	6	270	0.00	29.954 
17:20	88.6	88.6	88.7	40	61.1	0	4	248	0.00	29.952 
17:25	88.4	88.4	88.4	40	61.0	0	4	248	0.00	29.954 
17:30	88.4	88.4	88.7	41	61.7	1	3	248	0.00	29.953 
17:35	88.2	88.2	88.4	41	61.5	0	3	270	0.00	29.954 
17:40	88.0	88.0	88.5	42	62.0	0	3	270	0.00	29.954 
17:45	87.6	87.6	88.2	43	62.3	0	1	270	0.00	29.955 
17:50	87.2	87.2	87.9	44	62.6	0	1	270	0.00	29.954 
17:55	86.7	86.7	87.5	45	62.8	0	1	270	0.00	29.954 
18:00	86.3	86.3	87.0	45	62.4	0	1	270	0.00	29.952 
18:05	85.9	85.9	86.7	46	62.7	0	1	270	0.00	29.952 
18:10	85.5	85.5	86.2	46	62.3	0	0	---	0.00	29.951 
18:15	84.9	84.9	85.6	47	62.4	0	0	---	0.00	29.953 
18:20	84.5	84.5	85.6	49	63.2	0	0	---	0.00	29.954 
18:25	84.0	84.0	84.9	49	62.8	0	0	---	0.00	29.954 
18:30	83.8	83.8	84.9	50	63.1	0	0	---	0.00	29.954 
18:35	83.4	83.4	84.4	50	62.8	0	0	---	0.00	29.956 
18:40	83.0	83.0	84.3	52	63.5	0	0	---	0.00	29.954 
18:45	82.4	82.4	83.5	52	63.0	0	0	---	0.00	29.955 
18:50	82.0	82.0	83.2	53	63.2	0	0	---	0.00	29.957 
18:55	81.8	81.8	83.2	54	63.5	0	0	---	0.00	29.956 
19:00	81.4	81.4	82.7	54	63.1	0	0	---	0.00	29.959 
19:05	81.1	81.1	82.5	55	63.4	0	0	---	0.00	29.955 
19:10	80.7	80.7	82.2	56	63.5	0	0	---	0.00	29.957 
19:15	80.3	80.3	81.7	56	63.1	0	0	---	0.00	29.957 
19:20	80.1	80.1	81.6	57	63.5	0	0	---	0.00	29.958 
19:25	79.8	79.8	81.4	58	63.7	0	0	---	0.00	29.957 
19:30	79.6	79.6	81.2	58	63.5	0	0	---	0.00	29.955 
19:35	79.4	79.4	81.0	59	63.8	0	0	---	0.00	29.954 
19:40	79.2	79.2	81.0	61	64.6	0	0	---	0.00	29.954 
19:45	79.0	79.0	80.7	60	63.9	0	0	---	0.00	29.954 
19:50	78.6	78.6	80.3	61	64.0	0	0	---	0.00	29.952 
19:55	78.5	78.5	80.3	62	64.4	0	0	---	0.00	29.953 
20:00	78.1	78.1	79.9	62	64.0	0	0	---	0.00	29.955 
20:05	77.9	77.9	79.6	62	63.8	0	0	---	0.00	29.952 
20:10	77.7	77.7	79.4	62	63.6	0	0	---	0.00	29.953 
20:15	77.6	77.6	79.4	63	64.0	0	0	---	0.00	29.954 
20:20	77.4	77.4	79.2	64	64.2	0	0	---	0.00	29.955 
20:25	77.2	77.2	79.0	64	64.1	0	0	---	0.00	29.954 
20:30	77.0	77.0	78.8	65	64.3	0	0	---	0.00	29.955 
20:35	76.7	76.7	78.5	65	64.0	0	0	---	0.00	29.956 
20:40	76.5	76.5	78.3	65	63.8	0	0	---	0.00	29.955 
20:45	76.5	76.5	78.3	65	63.8	0	0	---	0.00	29.954 
20:50	76.7	76.7	78.5	65	64.0	0	0	---	0.00	29.953 
20:55	76.7	76.7	78.5	65	64.0	0	0	---	0.00	29.954 
21:00	76.7	76.7	78.5	65	64.0	0	0	---	0.00	29.955 
21:05	76.5	76.5	78.3	66	64.3	0	0	---	0.00	29.947 
21:10	76.3	76.3	78.1	66	64.1	0	0	---	0.00	29.949 
21:15	76.0	76.0	77.8	67	64.2	0	0	---	0.00	29.950 
21:20	75.8	75.8	77.6	68	64.5	0	0	---	0.00	29.949 
21:25	75.8	75.8	77.6	67	64.0	0	0	---	0.00	29.946 
21:30	75.8	75.8	77.6	67	64.0	0	0	---	0.00	29.945 
21:35	76.0	76.0	77.8	67	64.2	0	0	---	0.00	29.944 
21:40	75.8	75.8	77.6	67	64.0	0	0	---	0.00	29.944 
21:45	75.8	75.8	77.6	68	64.5	0	1	270	0.00	29.947 
21:50	75.8	75.8	77.6	68	64.5	0	0	---	0.00	29.949 
21:55	75.8	75.8	77.6	68	64.5	0	0	---	0.00	29.950 
22:00	75.8	75.8	77.6	68	64.5	0	0	---	0.00	29.949 
22:05	75.8	75.8	77.6	68	64.5	0	0	---	0.00	29.943 
22:10	76.0	76.0	77.7	68	64.7	0	1	270	0.00	29.940 
22:15	76.1	76.1	77.8	68	64.8	0	1	270	0.00	29.942 
22:20	76.5	76.5	78.3	67	64.7	0	1	270	0.00	29.942 
22:25	76.7	76.7	78.5	67	64.9	0	2	270	0.00	29.940 
22:30	76.7	76.7	78.5	67	64.9	0	1	270	0.00	29.937 
22:35	76.5	76.5	78.3	67	64.7	0	1	270	0.00	29.939 
22:40	76.5	76.5	78.3	67	64.7	0	1	270	0.00	29.939 
22:45	76.7	76.7	78.5	67	64.9	0	2	270	0.00	29.942 
22:50	76.7	76.7	78.5	67	64.9	0	1	270	0.00	29.942 
22:55	76.7	76.7	78.5	67	64.9	0	1	270	0.00	29.942 
23:00	76.7	76.7	78.5	67	64.9	0	2	270	0.00	29.942 
23:05	76.7	76.7	78.5	67	64.9	0	1	270	0.00	29.938 
23:10	76.8	76.8	78.6	67	65.0	1	2	270	0.00	29.938 
23:15	77.0	77.0	78.8	67	65.2	0	2	270	0.00	29.938 
23:20	76.8	76.8	78.6	67	65.0	0	1	270	0.00	29.937 
23:25	76.7	76.7	78.5	67	64.9	0	1	270	0.00	29.938 
23:30	76.7	76.7	78.5	68	65.3	0	1	248	0.00	29.938 
23:35	76.7	76.7	78.5	68	65.3	0	1	248	0.00	29.938 
23:40	76.7	76.7	78.5	68	65.3	0	1	248	0.00	29.937 
23:45	76.7	76.7	78.5	68	65.3	0	1	248	0.00	29.938 
23:50	76.7	76.7	78.5	68	65.3	0	1	248	0.00	29.937 
23:55	76.5	76.5	78.3	68	65.1	0	1	248	0.00	29.937 

CoCoRaHS
IN-AL-39
A2 Web Hosting
Creative Commons License
GoDaddy
Look for:

loaded 2017-12-13 02:40:31 • last modified 2010-11-18 10:43:29
Privacy PolicyDisclaimer
• wx.awcolley.com is powered by PmWiki v.2002016 •
• all content (unless otherwise noted) © 2017 A W Colley